Time;durP1;ratioP1;P1;durP2;ratioP2;P2;SDS_P1;SDS_P2;PMS_P1;PMS_P2;Temp;Humidity;BMP_temperature;BMP_pressure;BME280_temperature;BME280_humidity;BME280_pressure;Samples;Min_cycle;Max_cycle;Signal;HPM_P1;HPM_P2
2022/11/03 05:23:43;;;;;;;6.55;3.72;;;;;;;11.55;68.71;101885.16;4986573;28;20392;-87
2022/11/03 05:26:33;;;;;;;7.78;4.72;;;;;;;11.72;68.19;101893.25;4971189;28;20519;-82
2022/11/03 05:28:59;;;;;;;11.15;4.22;;;;;;;11.76;67.39;101884.44;4971486;28;20029;-86
2022/11/03 05:31:28;;;;;;;9.90;4.47;;;;;;;12.23;68.18;101907.09;4987700;28;20038;-94
2022/11/03 05:34:13;;;;;;;9.95;4.18;;;;;;;12.52;64.80;101909.47;4971235;28;20034;-89
2022/11/03 05:36:38;;;;;;;12.80;4.93;;;;;;;12.48;64.38;101878.50;4986794;28;20039;-89
2022/11/03 05:39:32;;;;;;;19.45;6.45;;;;;;;12.77;64.09;101913.75;4959069;28;20038;-91
2022/11/03 05:41:58;;;;;;;24.83;12.30;;;;;;;12.86;65.46;101911.66;4961170;28;21165;-92
2022/11/03 05:44:23;;;;;;;18.63;6.15;;;;;;;13.03;63.72;101925.75;4934734;28;20490;-86
2022/11/03 05:46:48;;;;;;;23.77;9.60;;;;;;;13.33;63.19;101937.59;4971241;28;20063;-94
2022/11/03 05:49:14;;;;;;;21.58;9.10;;;;;;;13.48;62.58;101921.38;4956051;28;20122;-87
2022/11/03 05:51:40;;;;;;;20.73;9.30;;;;;;;13.86;62.21;101933.69;4948664;28;20086;-90
2022/11/03 05:54:06;;;;;;;33.05;10.13;;;;;;;13.56;60.77;101900.25;4949236;28;20038;-88
2022/11/03 05:56:37;;;;;;;26.05;10.35;;;;;;;13.76;61.00;101941.03;4967998;28;20082;-95
2022/11/03 05:59:03;;;;;;;29.65;11.10;;;;;;;13.57;61.40;101916.69;4935522;28;20031;-88
2022/11/03 06:01:31;;;;;;;28.75;11.80;;;;;;;13.63;61.35;101937.25;4941671;28;20489;-90
2022/11/03 06:04:18;;;;;;;24.77;11.05;;;;;;;13.85;61.18;101966.66;4933148;28;20038;-94
2022/11/03 06:06:48;;;;;;;29.70;11.02;;;;;;;13.83;60.96;101952.91;4957381;28;20807;-95
2022/11/03 06:09:19;;;;;;;20.70;7.57;;;;;;;13.93;60.59;101964.59;4933176;29;20122;-94
2022/11/03 06:11:45;;;;;;;21.40;9.38;;;;;;;13.94;60.49;101971.50;4948734;28;20066;-89
2022/11/03 06:15:33;;;;;;;19.50;8.48;;;;;;;14.03;60.47;101962.47;5116982;27;20918;-86
2022/11/03 06:17:58;;;;;;;18.67;6.95;;;;;;;14.14;60.33;101988.88;5128488;27;20043;-92
2022/11/03 06:20:24;;;;;;;26.45;8.18;;;;;;;14.08;60.05;101978.75;5095904;28;20415;-87
2022/11/03 06:22:50;;;;;;;21.48;9.30;;;;;;;15.27;56.58;101994.31;5096150;28;20031;-92
2022/11/03 06:25:23;;;;;;;17.00;7.88;;;;;;;15.00;56.95;101996.41;5108287;28;20031;-90
2022/11/03 06:27:49;;;;;;;22.55;9.40;;;;;;;14.73;57.71;101989.84;5089064;28;20032;-91
2022/11/03 06:30:27;;;;;;;20.45;6.50;;;;;;;14.84;57.39;101991.03;5093994;28;20166;-92
2022/11/03 06:32:57;;;;;;;24.70;7.53;;;;;;;14.56;58.11;101986.25;5111977;28;20027;-93
2022/11/03 06:35:23;;;;;;;19.80;7.72;;;;;;;14.55;58.16;101992.38;5084061;28;20098;-91
2022/11/03 06:37:49;;;;;;;18.65;7.72;;;;;;;14.40;58.85;101997.34;5077489;28;20028;-91
2022/11/03 06:40:14;;;;;;;23.25;8.40;;;;;;;14.45;58.71;101985.84;5072265;28;20031;-92
2022/11/03 06:42:39;;;;;;;25.70;8.80;;;;;;;14.45;58.53;101988.44;5041618;27;20117;-89
2022/11/03 06:45:32;;;;;;;20.45;7.35;;;;;;;14.67;58.63;102005.75;5050681;28;20425;-86
2022/11/03 06:47:58;;;;;;;22.63;7.38;;;;;;;14.48;58.21;101993.53;5064259;28;20502;-90
2022/11/03 06:50:27;;;;;;;15.70;7.75;;;;;;;14.53;58.76;102017.59;5061888;28;20040;-92
2022/11/03 06:52:52;;;;;;;22.17;6.85;;;;;;;14.60;58.46;101987.78;5047669;28;20036;-83
2022/11/03 06:55:23;;;;;;;27.55;7.85;;;;;;;15.03;59.67;102009.28;5044851;28;20096;-88
2022/11/03 06:57:50;;;;;;;17.98;6.60;;;;;;;15.21;56.58;102005.84;5049690;28;20033;-92
2022/11/03 07:00:21;;;;;;;19.05;7.50;;;;;;;15.23;57.78;102007.53;5048155;28;20516;-92
2022/11/03 07:02:52;;;;;;;17.98;7.47;;;;;;;15.23;57.00;102010.16;5063461;28;20503;-92
2022/11/03 07:05:25;;;;;;;17.95;7.32;;;;;;;15.27;57.03;102016.94;5050597;28;20029;-87
2022/11/03 07:07:52;;;;;;;18.02;6.55;;;;;;;15.28;56.69;102016.84;5049977;28;20029;-89
2022/11/03 07:10:17;;;;;;;16.73;6.80;;;;;;;15.88;58.22;102001.81;5047752;28;20025;-82
2022/11/03 07:12:43;;;;;;;16.02;6.40;;;;;;;15.68;54.99;101981.91;5057580;28;20053;-92
2022/11/03 07:15:44;;;;;;;16.20;7.07;;;;;;;15.81;55.77;102025.66;5045206;28;20509;-85
2022/11/03 07:18:34;;;;;;;15.85;6.93;;;;;;;15.50;55.90;101991.44;5042165;28;20033;-89
2022/11/03 07:21:06;;;;;;;12.85;6.03;;;;;;;15.68;55.74;102020.22;5014916;28;20052;-94
2022/11/03 07:23:31;;;;;;;14.50;5.88;;;;;;;15.55;56.50;102025.16;5029016;28;20040;-91
2022/11/03 07:25:59;;;;;;;13.73;5.57;;;;;;;16.26;56.33;102012.97;5018808;28;20033;-87
2022/11/03 07:28:32;;;;;;;15.23;5.07;;;;;;;16.61;54.09;102018.97;5034056;28;20458;-91
2022/11/03 07:30:59;;;;;;;12.45;4.32;;;;;;;16.37;53.71;102017.63;5049710;28;20199;-90
2022/11/03 07:33:25;;;;;;;17.45;6.57;;;;;;;16.22;55.46;102002.72;5017985;28;20124;-88
2022/11/03 07:35:50;;;;;;;20.50;6.40;;;;;;;16.26;54.01;102022.56;5049201;28;20479;-93
2022/11/03 07:38:20;;;;;;;19.08;6.03;;;;;;;16.16;54.58;102014.34;5035230;28;20029;-93
2022/11/03 07:40:47;;;;;;;11.63;5.05;;;;;;;16.08;55.12;102024.31;4997509;28;20029;-89
2022/11/03 07:43:19;;;;;;;7.00;3.10;;;;;;;16.06;55.18;102019.19;5031470;28;20025;-91
2022/11/03 07:45:48;;;;;;;19.73;4.75;;;;;;;15.97;55.25;102021.41;5032810;28;20108;-85
2022/11/03 07:48:32;;;;;;;12.75;6.03;;;;;;;16.00;55.85;102021.25;5049923;28;20037;-90
2022/11/03 07:51:22;;;;;;;13.65;5.03;;;;;;;16.07;55.66;102017.41;5038353;28;20036;-91
2022/11/03 07:53:50;;;;;;;16.95;5.80;;;;;;;15.96;55.27;102009.28;5025538;28;20042;-88
2022/11/03 07:56:20;;;;;;;17.17;5.68;;;;;;;16.01;55.21;102010.72;5032537;28;20120;-94
2022/11/03 07:59:12;;;;;;;16.33;5.85;;;;;;;16.14;54.82;102008.38;5021033;28;20033;-87
2022/11/03 08:01:50;;;;;;;18.13;4.95;;;;;;;16.16;54.81;102003.91;5004480;28;20110;-89
2022/11/03 08:04:21;;;;;;;12.77;4.88;;;;;;;16.23;54.97;102007.91;5020745;28;20033;-93
2022/11/03 08:06:47;;;;;;;18.13;5.25;;;;;;;16.17;55.34;101992.53;5016934;28;20045;-88
2022/11/03 08:09:13;;;;;;;11.30;4.57;;;;;;;16.29;54.81;101983.22;5021634;28;20029;-91
2022/11/03 08:11:38;;;;;;;14.93;5.30;;;;;;;16.48;54.70;101996.19;5034713;28;20030;-89
2022/11/03 08:14:04;;;;;;;11.55;5.07;;;;;;;16.59;54.25;101983.41;5031536;28;20132;-87
2022/11/03 08:16:29;;;;;;;11.00;5.20;;;;;;;16.65;53.50;101983.09;5046963;28;20029;-93
2022/11/03 08:18:55;;;;;;;13.35;4.68;;;;;;;16.52;53.86;101976.84;5014228;28;20049;-90
2022/11/03 08:21:20;;;;;;;12.77;5.30;;;;;;;16.51;54.04;101980.34;5041910;28;20078;-91
2022/11/03 08:23:46;;;;;;;13.13;5.47;;;;;;;16.64;53.52;101986.63;5036902;28;20040;-89
2022/11/03 08:26:11;;;;;;;16.20;7.45;;;;;;;16.62;53.61;101984.09;5041208;28;20025;-86
2022/11/03 08:28:37;;;;;;;12.93;4.40;;;;;;;16.71;53.85;101993.22;5027048;28;20506;-91
2022/11/03 08:31:05;;;;;;;13.63;4.88;;;;;;;16.84;53.59;101990.81;5021207;28;20040;-88
2022/11/03 08:33:31;;;;;;;12.02;4.75;;;;;;;16.73;53.44;101974.88;5046103;28;20060;-90
2022/11/03 08:35:57;;;;;;;14.50;4.95;;;;;;;16.78;53.34;101971.06;5033861;28;20411;-82
2022/11/03 08:38:22;;;;;;;20.10;5.68;;;;;;;16.73;53.51;101983.56;5046687;28;20027;-87
2022/11/03 08:40:48;;;;;;;10.55;4.97;;;;;;;16.78;53.55;101965.84;5038554;28;20033;-90
2022/11/03 08:43:13;;;;;;;12.43;5.68;;;;;;;16.84;53.23;101959.47;5058919;28;20374;-90
2022/11/03 08:45:39;;;;;;;16.30;6.13;;;;;;;16.95;53.32;101974.56;5055870;28;20037;-88
2022/11/03 08:48:05;;;;;;;16.60;5.75;;;;;;;16.87;53.30;101969.75;5069889;28;20028;-85
2022/11/03 08:50:30;;;;;;;19.27;6.18;;;;;;;16.96;53.18;101978.88;5051273;28;20574;-90
2022/11/03 08:52:56;;;;;;;15.10;4.47;;;;;;;17.14;53.40;101980.47;5074707;28;20057;-88
2022/11/03 08:55:21;;;;;;;12.02;5.95;;;;;;;17.22;52.96;101982.69;5086236;28;20054;-94
2022/11/03 08:57:47;;;;;;;15.93;6.53;;;;;;;17.35;52.93;101984.50;5048486;28;20055;-93
2022/11/03 09:00:13;;;;;;;11.20;5.75;;;;;;;17.31;52.73;101976.94;5069751;28;20025;-88
2022/11/03 09:02:38;;;;;;;15.57;5.70;;;;;;;17.35;52.70;101973.22;5072167;28;20076;-91
2022/11/03 09:05:06;;;;;;;13.18;6.43;;;;;;;17.52;52.69;101972.28;5075029;28;20528;-83
2022/11/03 09:07:32;;;;;;;10.35;5.35;;;;;;;17.69;52.00;101967.78;5057899;28;20714;-93
2022/11/03 09:09:57;;;;;;;14.05;5.65;;;;;;;17.71;51.57;101970.31;5033847;28;20052;-89
2022/11/03 09:12:23;;;;;;;15.93;7.20;;;;;;;17.76;51.73;101960.41;5058443;28;20051;-89
2022/11/03 09:14:48;;;;;;;14.00;6.50;;;;;;;17.89;50.64;101950.91;5064602;28;20052;-91
2022/11/03 09:17:14;;;;;;;15.90;6.53;;;;;;;17.98;50.41;101952.97;5053389;28;20044;-86
2022/11/03 09:19:39;;;;;;;18.17;5.78;;;;;;;18.03;50.41;101950.94;5066116;28;20410;-88
2022/11/03 09:22:05;;;;;;;16.05;5.93;;;;;;;18.15;50.36;101951.16;5056975;28;20017;-91
2022/11/03 09:24:30;;;;;;;13.27;6.20;;;;;;;18.21;49.67;101928.06;5088174;28;20090;-87
2022/11/03 09:26:56;;;;;;;15.88;6.53;;;;;;;18.32;50.08;101930.88;5052185;28;20036;-93
2022/11/03 09:29:21;;;;;;;23.48;9.80;;;;;;;18.31;49.67;101926.56;5052180;28;20040;-91
2022/11/03 09:31:47;;;;;;;22.05;9.05;;;;;;;18.41;48.94;101932.09;5060700;28;20036;-91
2022/11/03 09:34:13;;;;;;;24.20;11.02;;;;;;;18.46;48.98;101924.78;5031783;28;20033;-88
2022/11/03 09:36:38;;;;;;;23.77;9.43;;;;;;;18.66;48.63;101927.97;5037053;28;20178;-91
2022/11/03 09:39:04;;;;;;;19.33;7.25;;;;;;;18.64;48.81;101922.81;5056089;28;20025;-89
2022/11/03 09:41:32;;;;;;;21.45;10.55;;;;;;;18.64;48.73;101930.66;5043668;28;20057;-92
2022/11/03 09:43:59;;;;;;;28.27;12.70;;;;;;;18.75;48.95;101916.91;5014388;28;20033;-90
2022/11/03 09:46:24;;;;;;;15.38;5.75;;;;;;;18.94;48.39;101925.31;5033916;28;20426;-91
2022/11/03 09:48:50;;;;;;;13.52;6.28;;;;;;;19.05;48.50;101919.38;5018601;28;20056;-94
2022/11/03 09:51:19;;;;;;;14.35;6.57;;;;;;;19.12;48.53;101926.75;5031369;28;20048;-90
2022/11/03 09:53:45;;;;;;;16.30;6.75;;;;;;;19.16;47.83;101917.75;5044994;28;20096;-91
2022/11/03 09:56:11;;;;;;;15.15;6.65;;;;;;;19.21;48.06;101927.94;5014953;28;20030;-91
2022/11/03 09:58:37;;;;;;;14.98;6.80;;;;;;;19.06;47.89;101915.81;5016641;28;20033;-94
2022/11/03 10:01:02;;;;;;;18.42;8.70;;;;;;;19.09;47.72;101908.59;5046805;28;20140;-88
2022/11/03 10:03:28;;;;;;;15.07;7.40;;;;;;;19.18;47.49;101900.16;5031574;28;20025;-93
2022/11/03 10:05:53;;;;;;;20.88;7.35;;;;;;;19.19;47.49;101891.34;5048111;28;20533;-82
2022/11/03 10:08:29;;;;;;;20.08;7.25;;;;;;;19.30;47.76;101903.75;5014132;28;20025;-90
2022/11/03 10:10:55;;;;;;;23.02;7.97;;;;;;;19.44;47.08;101894.97;5047339;28;20033;-88
2022/11/03 10:13:29;;;;;;;20.95;7.50;;;;;;;19.53;47.07;101902.22;5048418;28;20119;-86
2022/11/03 10:15:55;;;;;;;19.98;8.05;;;;;;;19.72;45.93;101905.34;5018038;28;20080;-86
2022/11/03 10:18:21;;;;;;;23.33;9.15;;;;;;;19.80;45.34;101886.44;5014503;28;20029;-92
2022/11/03 10:20:46;;;;;;;22.00;8.50;;;;;;;19.88;44.75;101889.41;5032582;28;20029;-88
2022/11/03 10:23:12;;;;;;;22.92;9.02;;;;;;;19.86;44.48;101882.53;5029858;28;20068;-83
2022/11/03 10:25:38;;;;;;;21.63;9.80;;;;;;;19.94;44.24;101880.25;5027424;28;20025;-92
2022/11/03 10:28:19;;;;;;;24.42;9.85;;;;;;;20.03;45.34;101882.25;5027848;28;20094;-90
2022/11/03 10:30:50;;;;;;;40.42;16.90;;;;;;;20.12;43.45;101880.75;5046257;28;20237;-90
2022/11/03 10:33:30;;;;;;;25.80;9.55;;;;;;;20.16;43.31;101879.63;5029505;28;20032;-89
2022/11/03 10:35:57;;;;;;;22.33;10.00;;;;;;;20.20;42.95;101871.41;4997555;28;20101;-90
2022/11/03 10:38:30;;;;;;;24.98;9.88;;;;;;;20.41;44.71;101876.09;5013106;28;20430;-89
2022/11/03 10:41:15;;;;;;;;;;;;;;;20.50;43.30;101875.50;5012231;28;20044;-82
2022/11/03 10:44:06;;;;;;;32.67;9.50;;;;;;;20.44;43.65;101868.88;5025689;28;19913;-82
2022/11/03 10:46:32;;;;;;;31.30;9.18;;;;;;;20.49;43.41;101873.81;5023717;28;20038;-85
2022/11/03 10:49:05;;;;;;;25.55;10.82;;;;;;;20.48;43.23;101865.09;5024654;28;20048;-83
2022/11/03 10:51:32;;;;;;;18.00;8.95;;;;;;;20.52;45.21;101853.38;5048517;28;20064;-86
2022/11/03 10:53:57;;;;;;;20.67;8.88;;;;;;;20.69;42.29;101860.06;5014991;28;20045;-84
2022/11/03 10:56:23;;;;;;;25.40;11.27;;;;;;;20.61;42.62;101846.63;5031101;28;20056;-85
2022/11/03 10:58:49;;;;;;;26.88;10.48;;;;;;;20.67;42.67;101851.47;5048236;28;20517;-83
2022/11/03 11:01:14;;;;;;;19.25;9.50;;;;;;;20.69;42.84;101846.94;5050691;28;20074;-80
2022/11/03 11:03:43;;;;;;;34.58;12.20;;;;;;;20.70;42.42;101840.72;5051321;28;20087;-81
2022/11/03 11:06:20;;;;;;;22.02;9.77;;;;;;;20.77;42.07;101847.22;5052048;28;20064;-83
2022/11/03 11:08:47;;;;;;;24.00;10.35;;;;;;;20.74;42.32;101836.91;5053701;28;20021;-84
2022/11/03 11:11:17;;;;;;;23.88;10.63;;;;;;;20.61;42.75;101836.13;5035540;28;20025;-91
2022/11/03 11:13:42;;;;;;;27.40;11.55;;;;;;;20.65;42.92;101836.72;5035332;28;20115;-89
2022/11/03 11:16:54;;;;;;;30.33;11.05;;;;;;;20.83;42.48;101832.78;5052902;28;20033;-91
2022/11/03 11:19:21;;;;;;;24.33;10.90;;;;;;;20.58;42.78;101812.69;5051708;28;20422;-85
2022/11/03 11:21:46;;;;;;;28.40;10.27;;;;;;;20.61;43.18;101822.97;5052546;28;20417;-91
2022/11/03 11:24:12;;;;;;;22.23;10.50;;;;;;;20.65;42.83;101813.06;5053232;28;20037;-91
2022/11/03 11:26:38;;;;;;;25.10;10.60;;;;;;;20.51;43.24;101783.38;5052025;28;20029;-81
2022/11/03 11:29:07;;;;;;;28.73;11.38;;;;;;;20.56;43.64;101811.97;5068322;28;20060;-90
2022/11/03 11:31:33;;;;;;;24.50;10.52;;;;;;;20.55;44.37;101776.09;5051075;28;20035;-91
2022/11/03 11:34:17;;;;;;;28.77;11.00;;;;;;;20.89;43.36;101811.28;5052217;28;20406;-92
2022/11/03 11:36:43;;;;;;;27.17;12.15;;;;;;;20.92;42.97;101804.00;5053755;28;20017;-89
2022/11/03 11:39:27;;;;;;;32.38;12.77;;;;;;;21.03;44.10;101805.00;5033429;28;20033;-83
2022/11/03 11:42:12;;;;;;;26.88;12.98;;;;;;;21.09;42.88;101794.03;5051196;28;20529;-86
2022/11/03 11:44:49;;;;;;;28.52;11.60;;;;;;;21.11;43.53;101800.84;5051300;28;20033;-88
2022/11/03 11:47:39;;;;;;;28.88;12.57;;;;;;;20.94;43.05;101797.78;5033314;28;20021;-89
2022/11/03 11:50:11;;;;;;;25.05;11.18;;;;;;;21.00;44.08;101784.19;5053453;28;20025;-91
2022/11/03 11:52:43;;;;;;;25.47;10.67;;;;;;;21.00;43.17;101792.09;5052768;28;20036;-87
2022/11/03 11:55:45;;;;;;;21.15;11.02;;;;;;;20.95;43.34;101783.72;5051366;28;20029;-79
2022/11/03 11:58:16;;;;;;;25.90;11.13;;;;;;;20.98;44.06;101763.25;5045156;28;20541;-85
2022/11/03 12:00:56;;;;;;;31.30;12.70;;;;;;;21.30;43.37;101789.81;5050825;28;20505;-84
2022/11/03 12:03:24;;;;;;;23.38;11.25;;;;;;;21.34;43.78;101780.75;5034090;28;20490;-85
2022/11/03 12:05:50;;;;;;;32.78;12.57;;;;;;;21.25;42.68;101777.94;5050446;28;20078;-82
2022/11/03 12:08:17;;;;;;;29.55;12.25;;;;;;;21.30;42.18;101766.13;5051105;28;20033;-87
2022/11/03 12:10:51;;;;;;;25.02;10.25;;;;;;;21.29;42.87;101756.56;5049623;28;20113;-87
2022/11/03 12:13:46;;;;;;;28.30;11.02;;;;;;;21.35;44.08;101763.16;5050354;28;20024;-90
2022/11/03 12:16:36;;;;;;;34.45;12.18;;;;;;;21.15;42.05;101749.69;5051270;28;20040;-88
2022/11/03 12:19:40;;;;;;;24.67;12.30;;;;;;;21.07;43.54;101754.69;5032500;28;20470;-82
2022/11/03 12:22:26;;;;;;;29.80;12.57;;;;;;;21.18;43.93;101740.72;5033755;28;20083;-80
2022/11/03 12:24:55;;;;;;;33.08;13.30;;;;;;;21.08;42.48;101729.22;5044036;28;20506;-88
2022/11/03 12:27:23;;;;;;;47.63;14.32;;;;;;;21.13;42.57;101727.03;5050887;28;20036;-90
2022/11/03 12:29:59;;;;;;;34.42;12.18;;;;;;;21.11;42.25;101726.34;5050797;28;20033;-91
2022/11/03 12:32:25;;;;;;;31.48;14.60;;;;;;;21.16;43.56;101732.09;5050652;28;20028;-92
2022/11/03 12:34:52;;;;;;;30.00;11.90;;;;;;;21.21;42.19;101724.69;5030261;28;20044;-84
2022/11/03 12:37:18;;;;;;;31.52;13.75;;;;;;;21.21;43.04;101719.41;5031075;28;20407;-90
2022/11/03 12:39:43;;;;;;;22.35;10.73;;;;;;;21.36;42.74;101726.19;5029937;28;20034;-82
2022/11/03 12:42:09;;;;;;;36.70;12.10;;;;;;;21.12;41.65;101722.75;5029671;28;20033;-83
2022/11/03 12:44:34;;;;;;;27.90;12.85;;;;;;;21.03;43.55;101690.06;5031942;28;20036;-94
2022/11/03 12:47:02;;;;;;;29.23;12.43;;;;;;;21.48;43.48;101712.06;5047010;28;20033;-82
2022/11/03 12:49:28;;;;;;;32.85;13.65;;;;;;;21.54;40.97;101712.56;5011397;28;20136;-82
2022/11/03 12:51:53;;;;;;;24.58;11.82;;;;;;;21.50;41.71;101706.66;5029413;28;20036;-86
2022/11/03 12:54:20;;;;;;;24.90;10.95;;;;;;;21.51;40.35;101710.97;5046788;28;20032;-90
2022/11/03 12:56:46;;;;;;;32.92;13.50;;;;;;;21.31;40.78;101698.53;5019044;28;20052;-82
2022/11/03 12:59:11;;;;;;;26.33;11.18;;;;;;;21.28;40.69;101707.50;5030776;28;20404;-86
2022/11/03 13:01:37;;;;;;;27.30;11.68;;;;;;;21.17;41.30;101700.41;5032892;28;20029;-82
2022/11/03 13:04:06;;;;;;;27.13;13.25;;;;;;;21.13;41.45;101691.06;5033366;28;20426;-82
2022/11/03 13:06:31;;;;;;;30.42;12.73;;;;;;;21.09;41.00;101687.00;5029746;28;20408;-85
2022/11/03 13:08:57;;;;;;;29.15;13.05;;;;;;;20.97;40.98;101695.81;5030736;28;20494;-92
2022/11/03 13:14:06;;;;;;;25.50;10.88;;;;;;;20.98;41.50;101699.28;5051638;28;20110;-89
2022/11/03 13:16:32;;;;;;;26.05;10.43;;;;;;;20.92;41.45;101679.53;5051607;28;20436;-91
2022/11/03 13:18:57;;;;;;;23.70;12.18;;;;;;;20.99;41.38;101682.56;5051126;28;20078;-89
2022/11/03 13:21:23;;;;;;;23.35;11.32;;;;;;;20.86;41.15;101651.94;5033515;28;20029;-87
